Terminal Aerodrome Forecast
Issued by NWS Louisville, KY

Home | Current Version | Previous Version | Text Only | Print | Product List | Glossary On
Versions: 1 2 3 4 5 6 7 8 9 10 11 12 13 14 15 16 17 18
632
FTUS43 KLMK 231720
TAFBWG
TAF
KBWG 231720Z 2318/2418 11005KT 6SM -SHRA SCT070 BKN250
     FM232200 15008KT P6SM BKN070
     FM240500 18012KT P6SM SCT035 BKN100 WS018/19045KT
     FM241600 18013G19KT P6SM BKN035=

USA.gov is the U.S. government's official web portal to all federal, state and local government web resources and services.